Tarko-Sale, Russia
Current Conditions -  °F | °C
As of 8:30 PM on Saturday 20 Dec 2014 (Local Time) from USNN Reporting Station
Light Snow Light Snow  
Wind Chill:   Ceiling: 4800
Heat Index: 16°   Visibility: 2.1mi
Dew Point: 12°   Wind: 4mph
Humidity: 86%   Direction: 210°SSW
Pressure: 29.88"   Gusts: NA
Location:  64.92°N, 77.79°E
Report Text: USNN 201530Z 21002MPS 3500 -SN OVC048 M09/M11 Q1012 TEMPO 1500SN RMK QFE754 21490534
Loading
Personal Weather Stations






























Interactive Weather Map New forecast layout! Learn more

10-Day Weather Forecast

Advertisements
Track Severe Weather on mobile